createdAt,value
2019-04-07T00:00:58.496Z,0.00
2019-04-07T00:01:58.326Z,0.00
2019-04-07T00:02:58.617Z,0.00
2019-04-07T00:03:58.647Z,0.00
2019-04-07T00:05:10.332Z,0.00
2019-04-07T00:05:58.996Z,0.00
2019-04-07T00:06:59.178Z,0.00
2019-04-07T00:07:59.362Z,0.00
2019-04-07T00:08:59.538Z,0.00
2019-04-07T00:09:59.728Z,0.00
2019-04-07T00:11:00.201Z,0.00
2019-04-07T00:12:00.551Z,0.00
2019-04-07T00:13:00.286Z,0.00
2019-04-07T00:14:00.471Z,0.00
2019-04-07T00:15:00.653Z,0.00
2019-04-07T00:16:01.276Z,0.00
2019-04-07T00:17:01.029Z,0.00
2019-04-07T00:18:01.221Z,0.00
2019-04-07T00:19:01.562Z,0.00
2019-04-07T00:20:01.602Z,0.00
2019-04-07T00:21:01.790Z,0.00
2019-04-07T00:22:01.985Z,0.00
2019-04-07T00:23:02.163Z,0.00
2019-04-07T00:24:02.498Z,0.00
2019-04-07T00:25:02.613Z,0.00
2019-04-07T00:26:02.734Z,0.00
2019-04-07T00:27:02.922Z,0.00
2019-04-07T00:28:03.104Z,0.00
2019-04-07T00:29:03.295Z,0.00
2019-04-07T00:30:04.028Z,0.00
2019-04-07T00:31:04.189Z,0.00
2019-04-07T00:32:03.912Z,0.00
2019-04-07T00:33:04.039Z,0.00
2019-04-07T00:34:04.222Z,0.00
2019-04-07T00:35:04.404Z,0.00
2019-04-07T00:36:04.591Z,0.00
2019-04-07T00:37:04.777Z,0.00
2019-04-07T00:38:04.972Z,0.00
2019-04-07T00:39:05.899Z,0.00
2019-04-07T00:40:05.419Z,0.00
2019-04-07T00:41:05.683Z,0.00
2019-04-07T00:42:05.714Z,0.00
2019-04-07T00:43:05.912Z,0.00
2019-04-07T00:44:06.196Z,0.00
2019-04-07T00:45:06.284Z,0.00
2019-04-07T00:46:06.468Z,0.00
2019-04-07T00:47:06.665Z,0.00
2019-04-07T00:48:06.947Z,0.00
2019-04-07T00:49:07.030Z,0.00
2019-04-07T00:50:07.584Z,0.00
2019-04-07T00:51:07.809Z,0.00
2019-04-07T00:52:08.306Z,0.00
2019-04-07T00:53:07.810Z,0.00
2019-04-07T00:54:08.392Z,0.00
2019-04-07T00:55:08.797Z,0.00
2019-04-07T00:56:08.354Z,0.00
2019-04-07T00:57:08.543Z,0.00
2019-04-07T00:58:08.790Z,0.00
2019-04-07T00:59:08.916Z,0.00
2019-04-07T01:00:09.614Z,0.00
2019-04-07T01:01:09.286Z,0.00
2019-04-07T01:02:10.582Z,0.00
2019-04-07T01:03:09.658Z,0.00
2019-04-07T01:04:09.957Z,0.00
2019-04-07T01:05:10.514Z,0.00
2019-04-07T01:06:10.751Z,0.00
2019-04-07T01:07:10.406Z,0.00
2019-04-07T01:08:10.784Z,0.00
2019-04-07T01:09:10.777Z,0.00
2019-04-07T01:10:11.001Z,0.00
2019-04-07T01:11:11.331Z,0.00
2019-04-07T01:12:11.341Z,0.00
2019-04-07T01:13:11.906Z,0.00
2019-04-07T01:14:12.358Z,0.00
2019-04-07T01:15:12.499Z,0.00
2019-04-07T01:16:12.092Z,0.00
2019-04-07T01:17:12.602Z,0.00
2019-04-07T01:18:13.118Z,0.00
2019-04-07T01:19:12.649Z,0.00
2019-04-07T01:20:12.840Z,0.00
2019-04-07T01:21:13.026Z,0.00
2019-04-07T01:22:13.216Z,0.00
2019-04-07T01:23:13.404Z,0.00
2019-04-07T01:24:13.597Z,0.00
2019-04-07T01:25:13.895Z,0.00
2019-04-07T01:26:13.968Z,0.00
2019-04-07T01:27:14.658Z,0.00
2019-04-07T01:28:14.775Z,0.00
2019-04-07T01:29:14.735Z,0.00
2019-04-07T01:30:15.065Z,0.00
2019-04-07T01:31:14.897Z,0.00
2019-04-07T01:32:15.072Z,0.00
2019-04-07T01:33:15.383Z,0.00
2019-04-07T01:34:15.974Z,0.00
2019-04-07T01:35:15.650Z,0.00
2019-04-07T01:36:16.092Z,0.00
2019-04-07T01:37:16.264Z,0.00
2019-04-07T01:38:16.752Z,0.00
2019-04-07T01:39:16.897Z,0.00
2019-04-07T01:40:16.854Z,0.00
2019-04-07T01:41:17.496Z,0.00
2019-04-07T01:42:16.965Z,0.00
2019-04-07T01:43:17.495Z,0.00
2019-04-07T01:44:17.964Z,0.00
2019-04-07T01:45:18.042Z,0.00
2019-04-07T01:46:17.712Z,0.00
2019-04-07T01:47:17.894Z,0.00
2019-04-07T01:48:18.081Z,0.00
2019-04-07T01:49:18.386Z,0.00
2019-04-07T01:50:18.601Z,0.00
2019-04-07T01:51:18.643Z,0.00
2019-04-07T01:52:19.529Z,0.00
2019-04-07T01:53:19.154Z,0.00
2019-04-07T01:54:19.199Z,0.00
2019-04-07T01:55:19.403Z,0.00
2019-04-07T01:56:19.567Z,0.00
2019-04-07T01:57:20.122Z,0.00
2019-04-07T01:58:20.173Z,0.00
2019-04-07T01:59:20.124Z,0.00
2019-04-07T02:00:20.313Z,0.00
2019-04-07T02:01:20.870Z,0.00
2019-04-07T02:02:20.682Z,0.00
2019-04-07T02:03:20.884Z,0.00
2019-04-07T02:04:21.937Z,0.00
2019-04-07T02:05:21.254Z,0.00
2019-04-07T02:06:22.103Z,0.00
2019-04-07T02:07:22.208Z,0.00
2019-04-07T02:08:22.101Z,0.00
2019-04-07T02:09:22.570Z,0.00
2019-04-07T02:10:22.181Z,0.00
2019-04-07T02:11:22.360Z,0.00
2019-04-07T02:12:22.548Z,0.00
2019-04-07T02:13:22.869Z,0.00
2019-04-07T02:14:23.273Z,0.00
2019-04-07T02:15:23.116Z,0.00
2019-04-07T02:16:23.521Z,0.00
2019-04-07T02:17:23.476Z,0.00
2019-04-07T02:18:23.660Z,0.00
2019-04-07T02:19:24.110Z,0.00
2019-04-07T02:20:24.029Z,0.00
2019-04-07T02:21:24.905Z,0.00
2019-04-07T02:22:24.405Z,0.00
2019-04-07T02:23:25.044Z,0.00
2019-04-07T02:24:24.774Z,0.00
2019-04-07T02:25:25.162Z,0.00
2019-04-07T02:26:25.164Z,0.00
2019-04-07T02:27:25.326Z,0.00
2019-04-07T02:28:25.517Z,0.00
2019-04-07T02:29:25.694Z,0.00
2019-04-07T02:30:25.884Z,0.00
2019-04-07T02:31:26.078Z,0.00
2019-04-07T02:32:27.575Z,0.00
2019-04-07T02:33:26.448Z,0.00
2019-04-07T02:34:27.665Z,0.00
2019-04-07T02:35:28.034Z,0.00
2019-04-07T02:36:30.650Z,0.00
2019-04-07T02:37:27.896Z,0.00
2019-04-07T02:38:27.551Z,0.00
2019-04-07T02:39:27.559Z,0.00
2019-04-07T02:40:28.521Z,0.00
2019-04-07T02:41:27.930Z,0.00
2019-04-07T02:42:28.216Z,0.00
2019-04-07T02:43:28.307Z,0.00
2019-04-07T02:44:29.390Z,0.00
2019-04-07T02:45:28.684Z,0.00
2019-04-07T02:46:28.855Z,0.00
2019-04-07T02:47:29.729Z,0.00
2019-04-07T02:48:29.243Z,0.00
2019-04-07T02:49:30.189Z,0.00
2019-04-07T02:50:30.177Z,0.00
2019-04-07T02:51:29.801Z,0.00
2019-04-07T02:52:30.865Z,0.00
2019-04-07T02:53:30.775Z,0.00
2019-04-07T02:54:30.401Z,0.00
2019-04-07T02:55:30.540Z,0.00
2019-04-07T02:56:30.726Z,0.00
2019-04-07T02:57:31.833Z,0.00
2019-04-07T02:58:31.337Z,0.00
2019-04-07T02:59:31.287Z,0.00
2019-04-07T03:00:31.680Z,0.00
2019-04-07T03:01:31.672Z,0.00
2019-04-07T03:02:31.870Z,0.00
2019-04-07T03:03:32.035Z,0.00
2019-04-07T03:04:32.933Z,0.00
2019-04-07T03:05:33.279Z,0.00
2019-04-07T03:06:43.219Z,0.00
2019-04-07T03:07:32.846Z,0.00
2019-04-07T03:08:32.961Z,0.00
2019-04-07T03:09:33.519Z,0.00
2019-04-07T03:10:33.490Z,0.00
2019-04-07T03:11:33.528Z,0.00
2019-04-07T03:12:33.719Z,0.00
2019-04-07T03:13:34.969Z,0.00
2019-04-07T03:14:34.421Z,0.00
2019-04-07T03:15:34.406Z,0.00
2019-04-07T03:16:35.385Z,0.00
2019-04-07T03:17:34.957Z,0.00
2019-04-07T03:18:35.776Z,0.00
2019-04-07T03:19:35.028Z,0.00
2019-04-07T03:20:36.164Z,0.00
2019-04-07T03:21:36.208Z,0.00
2019-04-07T03:22:36.665Z,0.00
2019-04-07T03:23:36.502Z,0.00
2019-04-07T03:24:36.807Z,0.00
2019-04-07T03:25:36.927Z,0.00
2019-04-07T03:26:36.529Z,0.00
2019-04-07T03:27:36.535Z,0.00
2019-04-07T03:28:36.717Z,0.00
2019-04-07T03:29:36.915Z,0.00
2019-04-07T03:30:38.572Z,0.00
2019-04-07T03:31:38.870Z,0.00
2019-04-07T03:32:38.902Z,0.00
2019-04-07T03:33:40.640Z,0.00
2019-04-07T03:34:38.716Z,0.00
2019-04-07T03:35:40.283Z,0.00
2019-04-07T03:37:09.694Z,0.00
2019-04-07T03:37:43.400Z,0.00
2019-04-07T03:38:39.308Z,0.00
2019-04-07T03:39:39.385Z,0.00
2019-04-07T03:40:39.053Z,0.00
2019-04-07T03:41:39.999Z,0.00
2019-04-07T03:42:39.319Z,0.00
2019-04-07T03:43:40.123Z,0.00
2019-04-07T03:44:40.815Z,0.00
2019-04-07T03:45:39.897Z,0.00
2019-04-07T03:46:41.176Z,0.00
2019-04-07T03:47:40.268Z,0.00
2019-04-07T03:48:41.511Z,0.00
2019-04-07T03:49:41.385Z,0.00
2019-04-07T03:50:40.844Z,0.00
2019-04-07T03:51:41.705Z,0.00
2019-04-07T03:52:41.176Z,0.00
2019-04-07T03:53:42.141Z,0.00
2019-04-07T03:54:41.552Z,0.00
2019-04-07T03:55:42.380Z,0.00
2019-04-07T03:56:41.924Z,0.00
2019-04-07T03:57:43.001Z,0.00
2019-04-07T03:58:42.940Z,0.00
2019-04-07T03:59:42.539Z,0.00
2019-04-07T04:00:43.479Z,0.00
2019-04-07T04:01:43.607Z,0.00
2019-04-07T04:02:43.040Z,0.00
2019-04-07T04:03:44.025Z,0.00
2019-04-07T04:04:43.716Z,0.00
2019-04-07T04:05:43.601Z,0.00
2019-04-07T04:06:43.788Z,0.00
2019-04-07T04:07:44.234Z,4.00
2019-04-07T04:08:44.158Z,4.00
2019-04-07T04:09:45.472Z,0.00
2019-04-07T04:10:44.953Z,0.00
2019-04-07T04:11:45.193Z,4.00
2019-04-07T04:12:45.633Z,4.00
2019-04-07T04:13:45.081Z,4.00
2019-04-07T04:14:45.432Z,4.00
2019-04-07T04:15:45.453Z,4.00
2019-04-07T04:16:45.804Z,8.00
2019-04-07T04:17:45.828Z,8.00
2019-04-07T04:18:46.010Z,8.00
2019-04-07T04:19:46.569Z,8.00
2019-04-07T04:20:46.484Z,12.00
2019-04-07T04:21:46.560Z,16.00
2019-04-07T04:22:46.746Z,20.00
2019-04-07T04:23:46.923Z,20.00
2019-04-07T04:24:47.207Z,24.00
2019-04-07T04:25:47.289Z,32.00
2019-04-07T04:26:47.625Z,36.00
2019-04-07T04:27:48.523Z,40.00
2019-04-07T04:28:48.769Z,52.00
2019-04-07T04:29:51.805Z,56.00
2019-04-07T04:30:48.371Z,72.00
2019-04-07T04:31:49.116Z,84.00
2019-04-07T04:32:48.607Z,96.00
2019-04-07T04:33:48.777Z,108.00
2019-04-07T04:34:49.624Z,128.00
2019-04-07T04:35:49.166Z,144.00
2019-04-07T04:36:50.248Z,164.00
2019-04-07T04:37:52.294Z,184.00
2019-04-07T04:38:50.269Z,212.00
2019-04-07T04:39:50.682Z,236.00
2019-04-07T04:40:50.604Z,264.00
2019-04-07T04:41:50.827Z,296.00
2019-04-07T04:42:50.660Z,328.00
2019-04-07T04:43:50.637Z,364.00
2019-04-07T04:44:51.042Z,400.00
2019-04-07T04:45:51.014Z,440.00
2019-04-07T04:46:51.193Z,480.00
2019-04-07T04:47:51.651Z,532.00
2019-04-07T04:48:52.436Z,576.00
2019-04-07T04:49:52.763Z,628.00
2019-04-07T04:50:52.378Z,684.00
2019-04-07T04:51:52.116Z,740.00
2019-04-07T04:52:52.357Z,804.00
2019-04-07T04:53:52.501Z,868.00
2019-04-07T04:54:52.676Z,944.00
2019-04-07T04:55:53.540Z,1016.00
2019-04-07T04:56:53.515Z,1096.00
2019-04-07T04:57:53.218Z,1180.00
2019-04-07T04:58:53.406Z,1264.00
2019-04-07T04:59:54.015Z,1360.00
2019-04-07T05:00:53.774Z,1452.00
2019-04-07T05:01:53.960Z,1544.00
2019-04-07T05:02:54.144Z,1652.00
2019-04-07T05:03:54.333Z,1764.00
2019-04-07T05:04:54.513Z,1868.00
2019-04-07T05:05:54.696Z,2004.00
2019-04-07T05:06:54.879Z,2104.00
2019-04-07T05:08:00.795Z,2184.00
2019-04-07T05:08:55.281Z,2328.00
2019-04-07T05:09:56.659Z,2456.00
2019-04-07T05:10:55.630Z,2556.00
2019-04-07T05:11:56.501Z,2688.00
2019-04-07T05:12:56.144Z,2916.00
2019-04-07T05:13:56.193Z,3216.00
2019-04-07T05:14:57.147Z,3612.00
2019-04-07T05:15:56.550Z,3676.00
2019-04-07T05:16:56.738Z,3744.00
2019-04-07T05:17:57.294Z,3840.00
2019-04-07T05:18:57.354Z,4196.00
2019-04-07T05:19:57.688Z,5192.00
2019-04-07T05:20:57.519Z,5340.00
2019-04-07T05:21:58.228Z,5052.00
2019-04-07T05:22:57.853Z,5272.00
2019-04-07T05:23:58.032Z,5008.00
2019-04-07T05:24:58.219Z,5148.00
2019-04-07T05:25:58.410Z,5488.00
2019-04-07T05:26:58.618Z,5312.00
2019-04-07T05:27:58.790Z,5340.00
2019-04-07T05:28:59.396Z,5868.00
2019-04-07T05:29:59.160Z,6596.00
2019-04-07T05:30:59.467Z,7284.00
2019-04-07T05:32:00.067Z,8252.00
2019-04-07T05:32:59.721Z,9992.00
2019-04-07T05:34:00.391Z,9584.00
2019-04-07T05:35:00.094Z,9540.00
2019-04-07T05:36:00.548Z,11864.00
2019-04-07T05:37:01.217Z,11104.00
2019-04-07T05:38:04.028Z,9728.00
2019-04-07T05:39:01.005Z,10000.00
2019-04-07T05:40:02.912Z,10556.00
2019-04-07T05:41:01.864Z,11768.00
2019-04-07T05:42:01.435Z,13020.00
2019-04-07T05:43:02.028Z,15392.00
2019-04-07T05:44:02.511Z,16256.00
2019-04-07T05:45:01.999Z,14752.00
2019-04-07T05:46:02.187Z,13520.00
2019-04-07T05:47:02.886Z,13756.00
2019-04-07T05:48:03.200Z,20288.00
2019-04-07T05:49:03.066Z,26880.00
2019-04-07T05:50:04.877Z,28480.00
2019-04-07T05:51:03.489Z,28320.00
2019-04-07T05:52:05.662Z,30720.00
2019-04-07T05:53:04.173Z,32512.00
2019-04-07T05:54:03.717Z,32960.00
2019-04-07T05:55:04.470Z,34368.00
2019-04-07T05:56:04.371Z,35200.00
2019-04-07T05:57:04.354Z,36160.00
2019-04-07T05:58:07.024Z,36736.00
2019-04-07T05:59:04.661Z,37600.00
2019-04-07T06:00:05.782Z,38176.00
2019-04-07T06:01:05.230Z,38528.00
2019-04-07T06:02:05.260Z,39040.00
2019-04-07T06:03:08.212Z,39104.00
2019-04-07T06:04:05.680Z,39744.00
2019-04-07T06:05:06.564Z,40288.00
2019-04-07T06:06:06.030Z,41472.00
2019-04-07T06:07:06.934Z,41056.00
2019-04-07T06:08:22.490Z,41280.00
2019-04-07T06:09:07.218Z,41472.00
2019-04-07T06:10:06.808Z,41376.00
2019-04-07T06:11:07.003Z,41600.00
2019-04-07T06:12:09.736Z,42304.00
2019-04-07T06:13:07.391Z,43168.00
2019-04-07T06:14:08.261Z,44448.00
2019-04-07T06:15:07.883Z,45536.00
2019-04-07T06:16:08.002Z,46816.00
2019-04-07T06:17:08.177Z,47808.00
2019-04-07T06:18:08.375Z,48608.00
2019-04-07T06:19:09.017Z,49664.00
2019-04-07T06:20:12.112Z,50432.00
2019-04-07T06:21:09.299Z,52384.00
2019-04-07T06:22:09.141Z,54016.00
2019-04-07T06:23:09.338Z,55456.00
2019-04-07T06:24:10.126Z,56384.00
2019-04-07T06:25:09.794Z,56384.00
2019-04-07T06:26:11.660Z,56672.00
2019-04-07T06:27:10.936Z,56800.00
2019-04-07T06:28:10.311Z,57568.00
2019-04-07T06:29:10.598Z,57888.00
2019-04-07T06:30:10.914Z,59008.00
2019-04-07T06:31:10.922Z,59616.00
2019-04-07T06:32:11.232Z,59776.00
2019-04-07T06:33:11.329Z,60192.00
2019-04-07T06:34:12.171Z,59744.00
2019-04-07T06:35:13.295Z,59968.00
2019-04-07T06:36:13.172Z,60544.00
2019-04-07T06:37:12.283Z,61248.00
2019-04-07T06:38:12.326Z,61120.00
2019-04-07T06:39:13.528Z,61440.00
2019-04-07T06:40:13.146Z,61216.00
2019-04-07T06:41:13.757Z,61536.00
2019-04-07T06:42:13.123Z,61088.00
2019-04-07T06:43:13.397Z,61120.00
2019-04-07T06:44:18.465Z,61600.00
2019-04-07T06:45:14.019Z,61792.00
2019-04-07T06:46:13.886Z,62784.00
2019-04-07T06:47:15.996Z,63648.00
2019-04-07T06:48:14.912Z,64288.00
2019-04-07T06:49:15.041Z,65120.00
2019-04-07T06:50:15.767Z,65536.00
2019-04-07T06:51:15.121Z,66048.00
2019-04-07T06:52:15.135Z,66176.00
2019-04-07T06:53:18.590Z,66176.00
2019-04-07T06:54:18.528Z,66112.00
2019-04-07T06:55:15.737Z,66656.00
2019-04-07T06:56:16.417Z,67168.00
2019-04-07T06:57:16.159Z,67328.00
2019-04-07T06:58:16.462Z,67424.00
2019-04-07T06:59:16.633Z,67680.00
2019-04-07T07:00:19.190Z,67520.00
2019-04-07T07:01:16.939Z,67808.00
2019-04-07T07:02:17.474Z,68864.00
2019-04-07T07:03:18.173Z,69920.00
2019-04-07T07:04:17.946Z,71200.00
2019-04-07T07:05:17.848Z,71648.00
2019-04-07T07:06:18.479Z,69888.00
2019-04-07T07:07:19.207Z,68288.00
2019-04-07T07:08:21.119Z,66656.00
2019-04-07T07:09:19.136Z,66336.00
2019-04-07T07:10:26.806Z,68160.00
2019-04-07T07:11:28.610Z,72128.00
2019-04-07T07:12:24.611Z,76448.00
2019-04-07T07:13:28.442Z,79936.00
2019-04-07T07:14:31.353Z,81568.00
2019-04-07T07:15:20.195Z,81536.00
2019-04-07T07:16:20.615Z,80352.00
2019-04-07T07:17:21.446Z,78176.00
2019-04-07T07:18:22.919Z,76352.00
2019-04-07T07:19:20.591Z,75552.00
2019-04-07T07:20:21.047Z,75808.00
2019-04-07T07:21:24.070Z,76864.00
2019-04-07T07:22:21.136Z,79328.00
2019-04-07T07:23:21.976Z,80960.00
2019-04-07T07:24:25.259Z,81504.00
2019-04-07T07:25:21.750Z,81824.00
2019-04-07T07:26:22.014Z,80608.00
2019-04-07T07:27:22.672Z,79904.00
2019-04-07T07:28:22.764Z,79680.00
2019-04-07T07:29:22.562Z,79744.00
2019-04-07T07:30:22.760Z,80576.00
2019-04-07T07:31:25.442Z,81984.00
2019-04-07T07:32:23.164Z,83456.00
2019-04-07T07:33:23.515Z,83264.00
2019-04-07T07:34:23.711Z,83680.00
2019-04-07T07:35:24.369Z,83392.00
2019-04-07T07:36:24.034Z,83488.00
2019-04-07T07:37:25.280Z,83616.00
2019-04-07T07:38:24.644Z,84032.00
2019-04-07T07:39:25.129Z,84352.00
2019-04-07T07:40:25.393Z,84288.00
2019-04-07T07:41:25.389Z,84064.00
2019-04-07T07:42:25.704Z,84480.00
2019-04-07T07:43:27.955Z,84640.00
2019-04-07T07:44:25.618Z,85696.00
2019-04-07T07:45:26.172Z,84896.00
2019-04-07T07:46:26.791Z,85952.00
2019-04-07T07:47:26.363Z,86400.00
2019-04-07T07:48:28.256Z,87136.00
2019-04-07T07:49:28.140Z,88288.00
2019-04-07T07:50:28.361Z,88896.00
2019-04-07T07:51:27.022Z,88480.00
2019-04-07T07:52:27.217Z,89216.00
2019-04-07T07:53:28.570Z,89856.00
2019-04-07T07:54:28.248Z,90592.00
2019-04-07T07:55:30.635Z,90496.00
2019-04-07T07:56:28.067Z,90560.00
2019-04-07T07:57:28.245Z,89536.00
2019-04-07T07:58:31.751Z,89120.00
2019-04-07T07:59:33.555Z,89024.00
2019-04-07T08:00:28.851Z,89536.00
2019-04-07T08:01:29.050Z,89760.00
2019-04-07T08:02:31.136Z,91040.00
2019-04-07T08:03:29.453Z,92000.00
2019-04-07T08:04:30.167Z,93792.00
2019-04-07T08:05:32.305Z,95168.00
2019-04-07T08:06:30.507Z,95744.00
2019-04-07T08:07:30.298Z,96704.00
2019-04-07T08:08:30.500Z,96256.00
2019-04-07T08:09:30.704Z,95552.00
2019-04-07T08:10:30.906Z,95168.00
2019-04-07T08:11:33.511Z,94496.00
2019-04-07T08:12:34.440Z,94592.00
2019-04-07T08:13:32.419Z,94336.00
2019-04-07T08:14:32.446Z,94624.00
2019-04-07T08:15:33.343Z,93856.00
2019-04-07T08:16:32.523Z,93056.00
2019-04-07T08:17:33.894Z,92000.00
2019-04-07T08:18:36.129Z,91424.00
2019-04-07T08:19:33.011Z,89664.00
2019-04-07T08:20:32.944Z,89312.00
2019-04-07T08:21:33.730Z,89920.00
2019-04-07T08:22:39.647Z,89888.00
2019-04-07T08:23:34.107Z,90368.00
2019-04-07T08:24:33.763Z,89632.00
2019-04-07T08:25:34.646Z,90848.00
2019-04-07T08:26:34.171Z,91936.00
2019-04-07T08:27:34.469Z,92224.00
2019-04-07T08:28:35.882Z,92288.00
2019-04-07T08:29:37.160Z,92896.00
2019-04-07T08:30:34.974Z,91872.00
2019-04-07T08:31:35.182Z,91072.00
2019-04-07T08:32:35.387Z,90240.00
2019-04-07T08:33:35.596Z,91520.00
2019-04-07T08:34:36.167Z,91232.00
2019-04-07T08:35:39.486Z,91136.00
2019-04-07T08:36:36.246Z,90880.00
2019-04-07T08:37:36.505Z,90208.00
2019-04-07T08:38:36.714Z,89760.00
2019-04-07T08:39:37.520Z,89408.00
2019-04-07T08:40:38.923Z,89856.00
2019-04-07T08:41:39.160Z,90048.00
2019-04-07T08:42:38.082Z,90816.00
2019-04-07T08:43:37.613Z,91328.00
2019-04-07T08:44:37.810Z,92160.00
2019-04-07T08:45:38.180Z,92832.00
2019-04-07T08:46:41.618Z,92352.00
2019-04-07T08:47:39.113Z,92672.00
2019-04-07T08:48:38.803Z,90176.00
2019-04-07T08:49:38.804Z,89184.00
2019-04-07T08:50:39.834Z,88448.00
2019-04-07T08:51:39.413Z,88896.00
2019-04-07T08:52:42.495Z,88768.00
2019-04-07T08:53:43.544Z,88224.00
2019-04-07T08:54:39.827Z,87552.00
2019-04-07T08:55:40.528Z,86400.00
2019-04-07T08:56:40.252Z,85280.00
2019-04-07T08:57:41.194Z,85024.00
2019-04-07T08:58:41.303Z,85184.00
2019-04-07T08:59:42.755Z,84416.00
2019-04-07T09:00:41.671Z,84320.00
2019-04-07T09:01:41.635Z,83296.00
2019-04-07T09:02:41.609Z,83712.00
2019-04-07T09:03:44.464Z,83968.00
2019-04-07T09:04:44.282Z,83904.00
2019-04-07T09:05:42.055Z,83456.00
2019-04-07T09:06:42.742Z,83872.00
2019-04-07T09:07:42.440Z,84736.00
2019-04-07T09:08:42.638Z,83264.00
2019-04-07T09:09:47.402Z,82880.00
2019-04-07T09:10:43.066Z,81248.00
2019-04-07T09:11:43.264Z,79968.00
2019-04-07T09:12:44.080Z,79040.00
2019-04-07T09:13:44.110Z,80416.00
2019-04-07T09:14:44.092Z,80832.00
2019-04-07T09:15:45.318Z,80896.00
2019-04-07T09:16:44.709Z,80832.00
2019-04-07T09:17:47.171Z,81312.00
2019-04-07T09:18:52.824Z,81440.00
2019-04-07T09:19:44.875Z,81440.00
2019-04-07T09:20:48.389Z,79968.00
2019-04-07T09:21:50.194Z,80416.00
2019-04-07T09:22:46.363Z,80416.00
2019-04-07T09:23:45.786Z,79776.00
2019-04-07T09:24:46.130Z,79840.00
2019-04-07T09:25:46.669Z,81728.00
2019-04-07T09:26:46.808Z,83424.00
2019-04-07T09:27:48.581Z,85440.00
2019-04-07T09:28:46.694Z,86272.00
2019-04-07T09:29:47.807Z,87040.00
2019-04-07T09:30:47.181Z,87200.00
2019-04-07T09:31:47.677Z,85536.00
2019-04-07T09:32:47.519Z,84128.00
2019-04-07T09:33:48.987Z,83904.00
2019-04-07T09:34:50.562Z,84896.00
2019-04-07T09:35:48.659Z,84320.00
2019-04-07T09:36:50.370Z,84288.00
2019-04-07T09:37:49.197Z,83808.00
2019-04-07T09:38:50.260Z,84096.00
2019-04-07T09:39:56.877Z,82560.00
2019-04-07T09:40:49.130Z,80224.00
2019-04-07T09:41:52.604Z,78816.00
2019-04-07T09:42:49.635Z,78784.00
2019-04-07T09:43:49.735Z,79776.00
2019-04-07T09:44:50.608Z,81952.00
2019-04-07T09:45:50.155Z,82592.00
2019-04-07T09:46:51.409Z,84256.00
2019-04-07T09:47:51.181Z,82784.00
2019-04-07T09:48:52.708Z,83936.00
2019-04-07T09:49:56.156Z,82880.00
2019-04-07T09:50:51.416Z,81408.00
2019-04-07T09:51:51.819Z,81184.00
2019-04-07T09:52:51.593Z,79008.00
2019-04-07T09:53:52.238Z,80288.00
2019-04-07T09:54:54.617Z,80288.00
2019-04-07T09:55:55.568Z,80992.00
2019-04-07T09:56:52.409Z,81920.00
2019-04-07T09:57:52.731Z,82528.00
2019-04-07T09:58:53.454Z,82496.00
2019-04-07T09:59:54.500Z,83296.00
2019-04-07T10:00:55.675Z,82912.00
2019-04-07T10:01:54.100Z,83168.00
2019-04-07T10:02:54.060Z,82848.00
2019-04-07T10:03:53.840Z,83424.00
2019-04-07T10:04:54.046Z,83392.00
2019-04-07T10:05:54.264Z,83776.00
2019-04-07T10:06:54.452Z,84224.00
2019-04-07T10:07:54.645Z,85376.00
2019-04-07T10:08:55.446Z,85216.00
2019-04-07T10:10:08.370Z,85376.00
2019-04-07T10:10:55.928Z,85024.00
2019-04-07T10:11:55.524Z,85504.00
2019-04-07T10:12:56.524Z,82816.00
2019-04-07T10:13:56.529Z,82592.00
2019-04-07T10:14:56.335Z,81888.00
2019-04-07T10:15:56.360Z,81952.00
2019-04-07T10:16:56.469Z,81504.00
2019-04-07T10:17:56.673Z,81568.00
2019-04-07T10:18:57.534Z,82272.00
2019-04-07T10:19:57.085Z,82880.00
2019-04-07T10:20:57.714Z,83648.00
2019-04-07T10:21:59.182Z,83488.00
2019-04-07T10:22:57.790Z,82112.00
2019-04-07T10:23:59.228Z,77888.00
2019-04-07T10:24:58.318Z,76512.00
2019-04-07T10:25:58.493Z,72416.00
2019-04-07T10:26:58.812Z,73888.00
2019-04-07T10:27:58.693Z,26016.00
2019-04-07T10:28:59.489Z,20192.00
2019-04-07T10:29:59.219Z,70656.00
2019-04-07T10:30:59.809Z,73216.00
2019-04-07T10:31:59.507Z,72736.00
2019-04-07T10:33:00.215Z,73408.00
2019-04-07T10:33:59.909Z,73088.00
2019-04-07T10:35:00.108Z,74304.00
2019-04-07T10:36:00.319Z,75904.00
2019-04-07T10:37:02.921Z,77312.00
2019-04-07T10:38:00.869Z,77216.00
2019-04-07T10:39:00.915Z,77376.00
2019-04-07T10:40:02.696Z,75328.00
2019-04-07T10:41:02.051Z,74336.00
2019-04-07T10:42:01.541Z,28512.00
2019-04-07T10:43:01.725Z,70912.00
2019-04-07T10:44:01.912Z,69888.00
2019-04-07T10:45:02.115Z,24960.00
2019-04-07T10:46:02.392Z,72288.00
2019-04-07T10:47:02.515Z,73280.00
2019-04-07T10:48:02.832Z,34496.00
2019-04-07T10:49:03.726Z,70560.00
2019-04-07T10:50:06.962Z,68608.00
2019-04-07T10:51:03.335Z,68960.00
2019-04-07T10:52:04.425Z,69184.00
2019-04-07T10:53:03.826Z,52416.00
2019-04-07T10:54:04.837Z,68992.00
2019-04-07T10:55:04.885Z,71424.00
2019-04-07T10:56:04.342Z,72128.00
2019-04-07T10:57:05.049Z,72544.00
2019-04-07T10:58:05.458Z,23136.00
2019-04-07T10:59:04.942Z,22816.00
2019-04-07T11:00:05.837Z,68096.00
2019-04-07T11:01:05.342Z,65952.00
2019-04-07T11:02:05.793Z,65568.00
2019-04-07T11:03:06.478Z,64352.00
2019-04-07T11:04:06.071Z,63424.00
2019-04-07T11:05:06.890Z,62976.00
2019-04-07T11:06:07.240Z,63200.00
2019-04-07T11:07:07.203Z,63744.00
2019-04-07T11:08:07.173Z,62880.00
2019-04-07T11:09:06.941Z,21344.00
2019-04-07T11:10:07.144Z,63200.00
2019-04-07T11:11:07.891Z,62784.00
2019-04-07T11:12:07.549Z,61728.00
2019-04-07T11:13:08.645Z,60960.00
2019-04-07T11:14:07.980Z,60960.00
2019-04-07T11:15:08.231Z,60960.00
2019-04-07T11:16:09.209Z,59232.00
2019-04-07T11:17:08.547Z,56032.00
2019-04-07T11:18:08.804Z,57696.00
2019-04-07T11:19:08.978Z,56576.00
2019-04-07T11:20:09.450Z,20800.00
2019-04-07T11:21:09.628Z,55808.00
2019-04-07T11:22:10.524Z,21824.00
2019-04-07T11:23:09.773Z,50304.00
2019-04-07T11:24:10.323Z,51104.00
2019-04-07T11:25:10.794Z,51040.00
2019-04-07T11:26:10.342Z,46048.00
2019-04-07T11:27:11.263Z,49600.00
2019-04-07T11:28:11.117Z,50656.00
2019-04-07T11:29:11.011Z,50240.00
2019-04-07T11:30:11.459Z,37536.00
2019-04-07T11:31:11.346Z,49696.00
2019-04-07T11:32:12.022Z,49664.00
2019-04-07T11:33:11.796Z,37472.00
2019-04-07T11:34:11.957Z,32512.00
2019-04-07T11:35:12.141Z,20192.00
2019-04-07T11:36:12.338Z,25440.00
2019-04-07T11:37:13.235Z,17284.00
2019-04-07T11:38:13.565Z,33344.00
2019-04-07T11:39:13.507Z,47808.00
2019-04-07T11:40:13.159Z,46752.00
2019-04-07T11:41:13.345Z,41280.00
2019-04-07T11:42:14.144Z,33312.00
2019-04-07T11:43:14.114Z,41792.00
2019-04-07T11:44:13.981Z,31680.00
2019-04-07T11:45:14.876Z,35968.00
2019-04-07T11:46:14.350Z,21184.00
2019-04-07T11:47:15.293Z,19296.00
2019-04-07T11:48:15.570Z,21792.00
2019-04-07T11:49:14.941Z,21312.00
2019-04-07T11:50:15.207Z,21408.00
2019-04-07T11:51:15.484Z,22848.00
2019-04-07T11:52:15.760Z,21312.00
2019-04-07T11:53:15.734Z,23264.00
2019-04-07T11:54:16.459Z,18592.00
2019-04-07T11:55:16.244Z,19392.00
2019-04-07T11:56:16.389Z,22208.00
2019-04-07T11:57:17.225Z,16416.00
2019-04-07T11:58:22.966Z,16172.00
2019-04-07T11:59:17.778Z,17312.00
2019-04-07T12:00:17.120Z,18624.00
2019-04-07T12:01:17.312Z,19648.00
2019-04-07T12:02:19.783Z,20768.00
2019-04-07T12:03:18.218Z,20512.00
2019-04-07T12:04:18.535Z,23072.00
2019-04-07T12:05:18.101Z,22240.00
2019-04-07T12:06:19.087Z,20608.00
2019-04-07T12:07:20.211Z,17024.00
2019-04-07T12:08:18.696Z,17248.00
2019-04-07T12:09:19.575Z,17952.00
2019-04-07T12:10:19.099Z,19328.00
2019-04-07T12:11:19.959Z,22144.00
2019-04-07T12:12:20.152Z,21024.00
2019-04-07T12:13:20.008Z,17504.00
2019-04-07T12:14:20.337Z,17440.00
2019-04-07T12:15:24.271Z,17216.00
2019-04-07T12:16:20.296Z,15836.00
2019-04-07T12:17:21.055Z,15492.00
2019-04-07T12:18:21.426Z,16768.00
2019-04-07T12:19:23.852Z,16064.00
2019-04-07T12:20:21.069Z,14528.00
2019-04-07T12:21:24.021Z,14444.00